Time;durP1;ratioP1;P1;durP2;ratioP2;P2;SDS_P1;SDS_P2;PMS_P1;PMS_P2;Temp;Humidity;BMP_temperature;BMP_pressure;BME280_temperature;BME280_humidity;BME280_pressure;Samples;Min_cycle;Max_cycle;Signal;HPM_P1;HPM_P2
2022/10/09 00:01:49;;;;;;;0.43;0.43;;;17.20;82.70;;;;;;4176453;28;20060;-70
2022/10/09 00:04:32;;;;;;;0.20;0.20;;;17.20;82.80;;;;;;4177154;28;20052;-69
2022/10/09 00:07:13;;;;;;;0.00;0.00;;;17.20;82.80;;;;;;4176377;28;20122;-69
2022/10/09 00:09:54;;;;;;;0.00;0.00;;;17.20;82.80;;;;;;4164570;28;20396;-69
2022/10/09 00:12:34;;;;;;;0.00;0.00;;;17.20;82.90;;;;;;4176272;28;20055;-69
2022/10/09 00:15:16;;;;;;;0.00;0.00;;;17.20;83.00;;;;;;4175334;28;20063;-69
2022/10/09 00:17:57;;;;;;;0.00;0.00;;;17.20;83.00;;;;;;4193112;28;20048;-68
2022/10/09 00:20:42;;;;;;;0.00;0.00;;;17.10;83.10;;;;;;4176833;28;20047;-68
2022/10/09 00:23:22;;;;;;;0.00;0.00;;;17.10;83.10;;;;;;4176981;28;20052;-68
2022/10/09 00:26:03;;;;;;;0.00;0.00;;;17.10;83.10;;;;;;4180268;28;20564;-68
2022/10/09 00:28:45;;;;;;;0.20;0.20;;;17.10;83.20;;;;;;4192605;28;20055;-68
2022/10/09 00:31:26;;;;;;;;;;;17.10;83.30;;;;;;4192952;28;20506;-68
2022/10/09 00:34:06;;;;;;;0.00;0.00;;;17.10;83.30;;;;;;4176142;28;20067;-68
2022/10/09 00:36:49;;;;;;;0.00;0.00;;;17.10;83.50;;;;;;4176364;28;20052;-68
2022/10/09 00:39:30;;;;;;;0.00;0.00;;;17.10;83.40;;;;;;4176600;28;20097;-68
2022/10/09 00:42:11;;;;;;;0.00;0.00;;;17.10;83.40;;;;;;4175939;28;20056;-68
2022/10/09 00:44:56;;;;;;;0.00;0.00;;;17.10;83.40;;;;;;4186787;28;20056;-68
2022/10/09 00:47:40;;;;;;;0.00;0.00;;;17.10;83.50;;;;;;4191847;28;20125;-68
2022/10/09 00:50:26;;;;;;;0.00;0.00;;;17.10;83.50;;;;;;4193522;28;20097;-69
2022/10/09 00:53:12;;;;;;;0.00;0.00;;;17.10;83.50;;;;;;4176784;28;20048;-68
2022/10/09 00:55:53;;;;;;;0.28;0.28;;;17.00;83.40;;;;;;4160572;28;20048;-69
2022/10/09 00:58:34;;;;;;;0.00;0.00;;;17.00;83.50;;;;;;4175327;28;20137;-66
2022/10/09 01:01:15;;;;;;;0.10;0.10;;;17.00;83.40;;;;;;4192087;28;20054;-67
2022/10/09 01:03:56;;;;;;;0.00;0.00;;;17.00;83.50;;;;;;4179588;28;20151;-66
2022/10/09 01:06:49;;;;;;;0.00;0.00;;;17.00;83.50;;;;;;4160142;28;20377;-66
2022/10/09 01:09:39;;;;;;;1.13;0.88;;;17.00;83.60;;;;;;4175123;28;20056;-68
2022/10/09 01:12:29;;;;;;;0.05;0.05;;;17.00;83.60;;;;;;4192191;28;20047;-68
2022/10/09 01:15:17;;;;;;;0.00;0.00;;;17.00;83.60;;;;;;4192343;28;20063;-68
2022/10/09 01:18:03;;;;;;;0.00;0.00;;;17.00;84.50;;;;;;4192545;28;20052;-68
2022/10/09 01:20:49;;;;;;;0.00;0.00;;;17.00;83.60;;;;;;4191957;28;20055;-68
2022/10/09 01:23:50;;;;;;;0.95;0.95;;;17.00;84.50;;;;;;4179267;28;20051;-67
2022/10/09 01:26:57;;;;;;;0.00;0.00;;;17.00;83.70;;;;;;4158683;28;20052;-68
2022/10/09 01:29:44;;;;;;;0.00;0.00;;;17.00;83.60;;;;;;4163065;28;20047;-68
2022/10/09 01:32:29;;;;;;;0.00;0.00;;;17.00;83.70;;;;;;4167515;28;20055;-68
2022/10/09 01:35:12;;;;;;;0.00;0.00;;;17.00;83.70;;;;;;4175410;28;20087;-68
2022/10/09 01:37:54;;;;;;;0.00;0.00;;;17.00;83.70;;;;;;4174590;28;20056;-68
2022/10/09 01:40:36;;;;;;;0.35;0.35;;;17.00;83.70;;;;;;4174360;28;20060;-68
2022/10/09 01:43:17;;;;;;;0.00;0.00;;;16.90;83.70;;;;;;4174773;28;20110;-68
2022/10/09 01:46:21;;;;;;;0.00;0.00;;;16.90;83.80;;;;;;4175309;28;20052;-68
2022/10/09 01:49:12;;;;;;;0.00;0.00;;;16.90;83.80;;;;;;4174770;28;20044;-68
2022/10/09 01:51:59;;;;;;;0.55;0.55;;;16.90;83.80;;;;;;4192301;28;20746;-68
2022/10/09 01:54:48;;;;;;;0.00;0.00;;;16.90;83.90;;;;;;4172657;28;20052;-68
2022/10/09 01:57:36;;;;;;;0.00;0.00;;;16.90;83.90;;;;;;4191164;28;20101;-68
2022/10/09 02:00:17;;;;;;;0.00;0.00;;;16.90;84.80;;;;;;4190745;28;20166;-68
2022/10/09 02:03:01;;;;;;;0.00;0.00;;;16.90;83.90;;;;;;4191071;28;20055;-70
2022/10/09 02:05:44;;;;;;;0.00;0.00;;;16.90;84.00;;;;;;4192167;28;20064;-68
2022/10/09 02:08:25;;;;;;;0.00;0.00;;;16.90;84.00;;;;;;4192002;28;20473;-68
2022/10/09 02:11:09;;;;;;;0.00;0.00;;;16.90;84.30;;;;;;4190278;28;20055;-69
2022/10/09 02:13:51;;;;;;;0.00;0.00;;;16.90;84.00;;;;;;4191410;28;20109;-68
2022/10/09 02:16:37;;;;;;;0.00;0.00;;;16.90;84.90;;;;;;4192244;28;20068;-68
2022/10/09 02:19:25;;;;;;;0.00;0.00;;;16.90;84.00;;;;;;4191516;28;20047;-68
2022/10/09 02:22:12;;;;;;;0.00;0.00;;;16.80;84.00;;;;;;4191520;28;20119;-65
2022/10/09 02:24:53;;;;;;;0.05;0.05;;;16.80;84.00;;;;;;4191748;28;20097;-65
2022/10/09 02:27:35;;;;;;;0.00;0.00;;;16.80;84.10;;;;;;4191526;28;20514;-65
2022/10/09 02:30:17;;;;;;;0.00;0.00;;;16.80;84.10;;;;;;4191087;28;20047;-66
2022/10/09 02:32:58;;;;;;;0.15;0.15;;;16.80;84.10;;;;;;4191972;28;20042;-65
2022/10/09 02:35:41;;;;;;;0.00;0.00;;;16.80;84.10;;;;;;4191721;28;20108;-66
2022/10/09 02:38:22;;;;;;;0.00;0.00;;;16.80;84.10;;;;;;4190068;28;20379;-66
2022/10/09 02:41:03;;;;;;;0.00;0.00;;;16.80;84.10;;;;;;4178402;28;20578;-66
2022/10/09 02:43:44;;;;;;;0.10;0.10;;;16.80;84.10;;;;;;4157042;28;20400;-65
2022/10/09 02:46:25;;;;;;;3.60;2.25;;;16.80;84.10;;;;;;4173309;28;20048;-65
2022/10/09 02:49:06;;;;;;;;;;;16.80;84.20;;;;;;4190717;28;20074;-65
2022/10/09 02:51:48;;;;;;;0.00;0.00;;;16.80;84.10;;;;;;4190687;28;19931;-65
2022/10/09 02:54:29;;;;;;;0.00;0.00;;;16.80;84.20;;;;;;4190799;28;20157;-65
2022/10/09 02:57:10;;;;;;;0.00;0.00;;;16.80;84.30;;;;;;4190554;28;20056;-68
2022/10/09 02:59:51;;;;;;;0.00;0.00;;;16.80;84.20;;;;;;4161813;28;20056;-68
2022/10/09 03:02:32;;;;;;;0.00;0.00;;;16.70;84.20;;;;;;4187216;28;20055;-68
2022/10/09 03:05:12;;;;;;;0.00;0.00;;;16.70;84.30;;;;;;4174768;28;20063;-68
2022/10/09 03:07:55;;;;;;;0.00;0.00;;;16.70;84.30;;;;;;4177468;28;20052;-68
2022/10/09 03:10:37;;;;;;;0.00;0.00;;;16.70;84.30;;;;;;4164731;28;20059;-66
2022/10/09 03:13:18;;;;;;;0.00;0.00;;;16.70;84.30;;;;;;4194464;28;20043;-66
2022/10/09 03:16:03;;;;;;;0.00;0.00;;;16.70;84.30;;;;;;4194717;28;20131;-66
2022/10/09 03:18:44;;;;;;;0.10;0.10;;;16.70;84.30;;;;;;4168880;28;20048;-66
2022/10/09 03:21:27;;;;;;;0.00;0.00;;;16.70;84.30;;;;;;4193034;28;20568;-66
2022/10/09 03:24:09;;;;;;;0.00;0.00;;;16.70;84.30;;;;;;4193088;28;20047;-65
2022/10/09 03:26:50;;;;;;;0.00;0.00;;;16.70;84.30;;;;;;4193667;28;20817;-65
2022/10/09 03:29:31;;;;;;;0.00;0.00;;;16.70;84.30;;;;;;4194345;28;20101;-66
2022/10/09 03:32:13;;;;;;;0.00;0.00;;;16.70;84.30;;;;;;4194257;28;20483;-67
2022/10/09 03:34:54;;;;;;;0.00;0.00;;;16.70;84.30;;;;;;4193572;28;20094;-66
2022/10/09 03:37:35;;;;;;;0.00;0.00;;;16.70;84.40;;;;;;4193709;28;20422;-67
2022/10/09 03:40:17;;;;;;;0.00;0.00;;;16.70;84.30;;;;;;4194249;28;20051;-68
2022/10/09 03:42:57;;;;;;;0.45;0.45;;;16.60;84.20;;;;;;4193471;28;20076;-65
2022/10/09 03:45:39;;;;;;;0.00;0.00;;;16.70;84.40;;;;;;4194147;28;20059;-67
2022/10/09 03:48:20;;;;;;;0.00;0.00;;;16.60;85.10;;;;;;4177487;28;20510;-66
2022/10/09 03:51:01;;;;;;;0.27;0.27;;;16.60;84.30;;;;;;4171798;28;20078;-66
2022/10/09 03:53:42;;;;;;;0.00;0.00;;;16.60;84.20;;;;;;4192703;28;20294;-67
2022/10/09 03:56:24;;;;;;;0.00;0.00;;;16.60;84.20;;;;;;4180707;28;20407;-67
2022/10/09 03:59:08;;;;;;;0.00;0.00;;;16.60;84.20;;;;;;4192252;28;20056;-66
2022/10/09 04:01:49;;;;;;;0.00;0.00;;;16.60;84.20;;;;;;4193727;28;20556;-66
2022/10/09 04:04:29;;;;;;;0.00;0.00;;;16.60;84.20;;;;;;4192982;28;20063;-66
2022/10/09 04:07:10;;;;;;;0.00;0.00;;;16.60;84.20;;;;;;4193338;28;20051;-66
2022/10/09 04:09:51;;;;;;;0.00;0.00;;;16.60;84.20;;;;;;4193935;28;20091;-66
2022/10/09 04:12:33;;;;;;;0.00;0.00;;;16.60;84.20;;;;;;4193809;28;20399;-66
2022/10/09 04:15:14;;;;;;;0.28;0.28;;;16.60;84.20;;;;;;4193833;28;20337;-66
2022/10/09 04:17:55;;;;;;;0.00;0.00;;;16.60;84.20;;;;;;4193452;28;20133;-66
2022/10/09 04:20:36;;;;;;;0.05;0.05;;;16.60;84.20;;;;;;4193729;28;20129;-66
2022/10/09 04:23:18;;;;;;;0.00;0.00;;;16.60;84.20;;;;;;4193436;28;20051;-66
2022/10/09 04:25:59;;;;;;;0.00;0.00;;;16.50;85.00;;;;;;4175473;28;20182;-67
2022/10/09 04:28:42;;;;;;;0.00;0.00;;;16.50;84.20;;;;;;4165007;28;20056;-67
2022/10/09 04:31:23;;;;;;;0.10;0.10;;;16.50;84.20;;;;;;4180793;28;20121;-66
2022/10/09 04:34:04;;;;;;;0.00;0.00;;;16.50;84.20;;;;;;4193391;28;20171;-66
2022/10/09 04:36:45;;;;;;;0.00;0.00;;;16.50;84.20;;;;;;4176143;28;20183;-67
2022/10/09 04:39:26;;;;;;;1.40;1.30;;;16.50;84.20;;;;;;4161608;28;20380;-67
2022/10/09 04:42:07;;;;;;;0.00;0.00;;;16.50;84.20;;;;;;4175638;28;20788;-69
2022/10/09 04:44:49;;;;;;;;;;;16.50;84.20;;;;;;4176292;28;20302;-68
2022/10/09 04:47:30;;;;;;;0.00;0.00;;;16.50;84.20;;;;;;4175434;28;19931;-68
2022/10/09 04:50:11;;;;;;;0.15;0.15;;;16.50;84.20;;;;;;4178406;28;20047;-68
2022/10/09 04:52:51;;;;;;;0.00;0.00;;;16.50;84.20;;;;;;4169109;28;20054;-68
2022/10/09 04:55:32;;;;;;;0.00;0.00;;;16.40;84.20;;;;;;4179962;28;20114;-68
2022/10/09 04:58:13;;;;;;;0.00;0.00;;;16.40;84.20;;;;;;4174486;28;20305;-68
2022/10/09 05:00:56;;;;;;;;;;;16.40;84.20;;;;;;4177286;28;20198;-68
2022/10/09 05:03:38;;;;;;;0.00;0.00;;;16.40;84.20;;;;;;4192623;28;19927;-68
2022/10/09 05:06:20;;;;;;;0.00;0.00;;;16.40;84.20;;;;;;4192470;28;20047;-68
2022/10/09 05:09:01;;;;;;;0.00;0.00;;;16.40;84.30;;;;;;4192612;28;20181;-67
2022/10/09 05:11:42;;;;;;;0.00;0.00;;;16.40;84.20;;;;;;4174631;28;20584;-67
2022/10/09 05:14:23;;;;;;;0.00;0.00;;;16.40;84.30;;;;;;4191628;28;20074;-66
2022/10/09 05:17:06;;;;;;;0.00;0.00;;;16.40;84.30;;;;;;4174820;28;20067;-66
2022/10/09 05:19:54;;;;;;;0.00;0.00;;;16.40;84.30;;;;;;4191026;28;20097;-66
2022/10/09 05:22:35;;;;;;;0.08;0.08;;;16.30;84.20;;;;;;4191745;28;20403;-66
2022/10/09 05:25:16;;;;;;;0.05;0.05;;;16.40;84.30;;;;;;4191711;28;20514;-66
2022/10/09 05:27:57;;;;;;;0.00;0.00;;;16.40;84.20;;;;;;4191206;28;20052;-66
2022/10/09 05:30:41;;;;;;;0.00;0.00;;;16.30;84.10;;;;;;4191584;28;20063;-66
2022/10/09 05:33:23;;;;;;;0.00;0.00;;;16.30;84.10;;;;;;4191491;28;20294;-67
2022/10/09 05:36:05;;;;;;;0.00;0.00;;;16.30;84.10;;;;;;4179779;28;20051;-66
2022/10/09 05:38:46;;;;;;;0.00;0.00;;;16.30;84.10;;;;;;4174804;28;20079;-66
2022/10/09 05:41:28;;;;;;;0.00;0.00;;;16.30;84.10;;;;;;4162572;28;20399;-67
2022/10/09 05:44:09;;;;;;;0.00;0.00;;;16.30;84.20;;;;;;4191294;28;20052;-66
2022/10/09 05:46:50;;;;;;;0.00;0.00;;;16.30;84.20;;;;;;4192168;28;20059;-66
2022/10/09 05:49:32;;;;;;;0.23;0.23;;;16.30;84.30;;;;;;4178932;28;20047;-65
2022/10/09 05:52:13;;;;;;;0.00;0.00;;;16.30;84.60;;;;;;4176031;28;20055;-65
2022/10/09 05:54:55;;;;;;;0.45;0.45;;;16.30;84.60;;;;;;4189001;28;20489;-65
2022/10/09 05:57:36;;;;;;;0.00;0.00;;;16.30;84.40;;;;;;4163522;28;20055;-72
2022/10/09 06:00:17;;;;;;;1.50;1.40;;;16.40;84.30;;;;;;4174766;28;20052;-71
2022/10/09 06:02:58;;;;;;;0.10;0.10;;;16.30;84.30;;;;;;4174426;28;20127;-66
2022/10/09 06:05:40;;;;;;;0.00;0.00;;;16.30;84.20;;;;;;4174606;28;20064;-66
2022/10/09 06:08:21;;;;;;;0.70;0.70;;;16.30;84.20;;;;;;4168296;28;20056;-66
2022/10/09 06:11:13;;;;;;;0.00;0.00;;;16.30;84.20;;;;;;4175156;28;20407;-65
2022/10/09 06:13:55;;;;;;;0.17;0.17;;;16.30;84.30;;;;;;4157312;28;20052;-64
2022/10/09 06:16:37;;;;;;;0.00;0.00;;;16.30;84.30;;;;;;4178275;28;20051;-64
2022/10/09 06:19:19;;;;;;;0.00;0.00;;;16.30;84.30;;;;;;4191527;28;20517;-64
2022/10/09 06:22:01;;;;;;;0.05;0.05;;;16.30;84.40;;;;;;4191586;28;20124;-70
2022/10/09 06:24:42;;;;;;;0.00;0.00;;;16.20;84.30;;;;;;4191979;28;20054;-70
2022/10/09 06:27:22;;;;;;;0.75;0.75;;;16.20;84.40;;;;;;4191684;28;20052;-70
2022/10/09 06:30:04;;;;;;;0.00;0.00;;;16.20;84.40;;;;;;4174181;28;20056;-71
2022/10/09 06:32:45;;;;;;;0.13;0.13;;;16.20;85.30;;;;;;4174528;28;20051;-70
2022/10/09 06:35:26;;;;;;;;;;;16.20;87.50;;;;;;4174972;28;20126;-69
2022/10/09 06:38:08;;;;;;;0.00;0.00;;;16.30;88.60;;;;;;4145873;28;19927;-71
2022/10/09 06:40:49;;;;;;;0.00;0.00;;;16.30;90.00;;;;;;4158719;28;20852;-71
2022/10/09 06:43:30;;;;;;;0.85;0.85;;;16.30;90.70;;;;;;4189254;28;20125;-71
2022/10/09 06:46:12;;;;;;;0.10;0.10;;;16.30;90.00;;;;;;4195043;28;20352;-71
2022/10/09 06:48:53;;;;;;;0.10;0.10;;;16.20;88.80;;;;;;4180597;28;20076;-67
2022/10/09 06:51:34;;;;;;;1.87;1.73;;;16.20;88.10;;;;;;4194723;28;20407;-67
2022/10/09 06:54:17;;;;;;;0.00;0.00;;;16.20;87.80;;;;;;4194761;28;20055;-67
2022/10/09 06:56:57;;;;;;;0.17;0.17;;;16.20;87.40;;;;;;4187069;28;20070;-67
2022/10/09 06:59:39;;;;;;;0.15;0.15;;;16.20;87.20;;;;;;4188373;28;20044;-67
2022/10/09 07:02:20;;;;;;;0.10;0.10;;;16.20;87.00;;;;;;4192734;28;20536;-67
2022/10/09 07:05:00;;;;;;;0.10;0.10;;;16.20;86.80;;;;;;4194131;28;20051;-66
2022/10/09 07:07:41;;;;;;;3.30;0.88;;;16.20;86.50;;;;;;4181655;28;20055;-67
2022/10/09 07:10:24;;;;;;;0.90;0.90;;;16.10;86.30;;;;;;4193698;28;20059;-70
2022/10/09 07:13:05;;;;;;;1.55;0.52;;;16.10;86.20;;;;;;4192625;28;20044;-71
2022/10/09 07:15:46;;;;;;;0.28;0.28;;;16.10;86.00;;;;;;4180281;28;20181;-70
2022/10/09 07:18:27;;;;;;;0.00;0.00;;;16.10;85.90;;;;;;4176777;28;20076;-71
2022/10/09 07:21:09;;;;;;;0.00;0.00;;;16.10;85.90;;;;;;4191847;28;20614;-70
2022/10/09 07:23:49;;;;;;;0.00;0.00;;;16.10;85.70;;;;;;4193206;28;20501;-70
2022/10/09 07:26:34;;;;;;;0.10;0.10;;;16.10;85.40;;;;;;4194071;28;20060;-71
2022/10/09 07:29:17;;;;;;;0.10;0.10;;;16.10;85.40;;;;;;4194275;28;20055;-71
2022/10/09 07:31:58;;;;;;;5.15;0.65;;;16.10;85.40;;;;;;4193745;28;20052;-70
2022/10/09 07:34:38;;;;;;;0.30;0.30;;;16.10;85.20;;;;;;4193899;28;20051;-70
2022/10/09 07:37:19;;;;;;;0.00;0.00;;;16.00;85.00;;;;;;4204183;28;20510;-71
2022/10/09 07:40:00;;;;;;;0.00;0.00;;;16.00;84.90;;;;;;4188200;28;20047;-71
2022/10/09 07:42:42;;;;;;;0.00;0.00;;;16.00;84.90;;;;;;4191094;28;20043;-72
2022/10/09 07:45:24;;;;;;;0.00;0.00;;;16.00;84.90;;;;;;4203943;28;20070;-71
2022/10/09 07:48:04;;;;;;;0.00;0.00;;;16.00;84.90;;;;;;4190277;28;20059;-71
2022/10/09 07:50:46;;;;;;;0.00;0.00;;;16.00;84.90;;;;;;4193423;28;20052;-72
2022/10/09 07:53:26;;;;;;;0.00;0.00;;;16.00;84.80;;;;;;4193381;28;20051;-68
2022/10/09 07:56:14;;;;;;;0.00;0.00;;;16.10;84.80;;;;;;4190211;28;20047;-68
2022/10/09 07:58:58;;;;;;;0.00;0.00;;;16.10;84.80;;;;;;4193849;28;20062;-72
2022/10/09 08:01:39;;;;;;;0.00;0.00;;;16.20;84.70;;;;;;4176347;28;20548;-71
2022/10/09 08:04:20;;;;;;;0.55;0.55;;;16.20;84.70;;;;;;4175352;28;20143;-71
2022/10/09 08:07:01;;;;;;;0.50;0.50;;;16.30;84.80;;;;;;4176101;28;20056;-67
2022/10/09 08:09:42;;;;;;;0.00;0.00;;;16.30;84.60;;;;;;4193414;28;20086;-67
2022/10/09 08:12:23;;;;;;;0.00;0.00;;;16.30;84.30;;;;;;4175909;28;20103;-67
2022/10/09 08:15:07;;;;;;;0.00;0.00;;;16.40;84.20;;;;;;4159569;28;20515;-68
2022/10/09 08:17:48;;;;;;;0.10;0.10;;;16.40;83.90;;;;;;4178448;28;20063;-71
2022/10/09 08:20:29;;;;;;;0.00;0.00;;;16.40;83.60;;;;;;4190132;28;20439;-67
2022/10/09 08:23:12;;;;;;;0.00;0.00;;;16.40;83.40;;;;;;4175033;28;20048;-67
2022/10/09 08:25:54;;;;;;;0.40;0.40;;;16.40;83.20;;;;;;4176209;28;20404;-67
2022/10/09 08:28:35;;;;;;;0.00;0.00;;;16.40;83.00;;;;;;4176218;28;20060;-67
2022/10/09 08:31:18;;;;;;;0.77;0.73;;;16.40;82.80;;;;;;4172970;28;20048;-67
2022/10/09 08:34:01;;;;;;;0.00;0.00;;;16.40;82.60;;;;;;4159248;28;20057;-71
2022/10/09 08:36:41;;;;;;;0.00;0.00;;;16.40;82.40;;;;;;4159731;28;20052;-71
2022/10/09 08:39:22;;;;;;;0.10;0.10;;;16.40;82.20;;;;;;4161296;28;20487;-72
2022/10/09 08:42:04;;;;;;;0.00;0.00;;;16.40;82.10;;;;;;4192441;28;20506;-72
2022/10/09 08:44:48;;;;;;;0.00;0.00;;;16.40;82.10;;;;;;4192618;28;20514;-71
2022/10/09 08:47:40;;;;;;;0.00;0.00;;;16.40;81.90;;;;;;4176283;28;20098;-71
2022/10/09 08:50:25;;;;;;;0.00;0.00;;;16.40;81.90;;;;;;4191463;28;20125;-71
2022/10/09 08:53:14;;;;;;;0.00;0.00;;;16.40;81.80;;;;;;4192039;28;20109;-71
2022/10/09 08:55:56;;;;;;;0.10;0.10;;;16.50;81.70;;;;;;4192028;28;20046;-71
2022/10/09 08:58:39;;;;;;;2.08;1.88;;;16.50;81.60;;;;;;4176100;28;20400;-71
2022/10/09 09:01:29;;;;;;;0.00;0.00;;;16.50;81.50;;;;;;4175484;28;20094;-71
2022/10/09 09:04:35;;;;;;;0.00;0.00;;;16.60;81.30;;;;;;4191645;28;20079;-71
2022/10/09 09:07:25;;;;;;;0.00;0.00;;;16.60;81.20;;;;;;4178369;28;20058;-70
2022/10/09 09:10:14;;;;;;;0.00;0.00;;;16.70;81.00;;;;;;4175256;28;20170;-71
2022/10/09 09:13:00;;;;;;;0.00;0.00;;;16.70;80.80;;;;;;4175320;28;20107;-70
2022/10/09 09:15:47;;;;;;;0.00;0.00;;;16.70;80.60;;;;;;4175012;28;20056;-66
2022/10/09 09:18:37;;;;;;;0.00;0.00;;;16.70;80.40;;;;;;4183116;28;20142;-67
2022/10/09 09:21:35;;;;;;;0.00;0.00;;;16.80;80.30;;;;;;4187698;28;20051;-66
2022/10/09 09:24:18;;;;;;;0.00;0.00;;;16.80;80.00;;;;;;4191145;28;20121;-66
2022/10/09 09:27:04;;;;;;;0.00;0.00;;;16.80;79.70;;;;;;4192166;28;20198;-67
2022/10/09 09:29:49;;;;;;;0.00;0.00;;;16.90;79.60;;;;;;4192525;28;20048;-66
2022/10/09 09:32:32;;;;;;;0.00;0.00;;;16.90;79.30;;;;;;4187858;28;20102;-66
2022/10/09 09:35:21;;;;;;;3.40;0.75;;;16.90;79.20;;;;;;4190546;28;20136;-66
2022/10/09 09:38:03;;;;;;;0.00;0.00;;;16.90;78.90;;;;;;4190192;28;20051;-66
2022/10/09 09:40:44;;;;;;;0.00;0.00;;;17.00;79.70;;;;;;4191743;28;20060;-71
2022/10/09 09:43:27;;;;;;;0.30;0.30;;;17.00;78.80;;;;;;4192340;28;20051;-72
2022/10/09 09:46:14;;;;;;;0.00;0.00;;;16.90;78.80;;;;;;4191676;28;20059;-71
2022/10/09 09:48:55;;;;;;;2.72;2.05;;;16.90;78.80;;;;;;4189136;28;20091;-66
2022/10/09 09:51:36;;;;;;;0.00;0.00;;;17.00;78.80;;;;;;4191558;28;20158;-66
2022/10/09 09:54:23;;;;;;;0.00;0.00;;;17.00;78.60;;;;;;4162477;28;20084;-66
2022/10/09 09:57:11;;;;;;;0.08;0.08;;;17.00;78.50;;;;;;4174368;28;20127;-65
2022/10/09 10:00:08;;;;;;;0.00;0.00;;;17.00;78.40;;;;;;4173994;28;20044;-66
2022/10/09 10:02:49;;;;;;;0.13;0.13;;;17.00;78.50;;;;;;4174434;28;20214;-66
2022/10/09 10:05:35;;;;;;;;;;;17.00;78.50;;;;;;4175010;28;20183;-65
2022/10/09 10:08:23;;;;;;;0.00;0.00;;;17.00;78.50;;;;;;4174413;28;19928;-66
2022/10/09 10:11:06;;;;;;;2.92;1.65;;;17.00;78.70;;;;;;4175747;28;20056;-66
2022/10/09 10:13:49;;;;;;;0.10;0.10;;;17.00;78.80;;;;;;4174978;28;20048;-69
2022/10/09 10:16:32;;;;;;;0.10;0.10;;;17.00;79.00;;;;;;4191235;28;20117;-71
2022/10/09 10:19:22;;;;;;;0.00;0.00;;;17.00;79.10;;;;;;4191039;28;20043;-70
2022/10/09 10:22:06;;;;;;;0.00;0.00;;;17.00;79.10;;;;;;4190536;28;20396;-70
2022/10/09 10:24:48;;;;;;;0.00;0.00;;;17.00;79.20;;;;;;4157940;28;20091;-71
2022/10/09 10:27:36;;;;;;;0.00;0.00;;;17.00;79.30;;;;;;4157903;28;20084;-70
2022/10/09 10:30:18;;;;;;;16.77;2.08;;;17.00;79.30;;;;;;4173206;28;20446;-70
2022/10/09 10:33:03;;;;;;;0.00;0.00;;;17.00;79.30;;;;;;4174800;28;20455;-71
2022/10/09 10:35:45;;;;;;;2.72;1.88;;;17.00;79.30;;;;;;4174156;28;20059;-71
2022/10/09 10:38:31;;;;;;;0.10;0.10;;;17.00;79.40;;;;;;4173759;28;20130;-70
2022/10/09 10:41:19;;;;;;;0.10;0.10;;;17.10;79.50;;;;;;4165562;28;20098;-70
2022/10/09 10:44:07;;;;;;;0.10;0.10;;;17.10;79.40;;;;;;4174063;28;20056;-70
2022/10/09 10:46:53;;;;;;;0.50;0.38;;;17.10;79.40;;;;;;4174217;28;20514;-71
2022/10/09 10:49:34;;;;;;;0.00;0.00;;;17.10;80.10;;;;;;4172100;28;20364;-67
2022/10/09 10:52:31;;;;;;;0.00;0.00;;;17.20;79.20;;;;;;4158155;28;20191;-70
2022/10/09 10:55:26;;;;;;;0.38;0.38;;;17.20;79.00;;;;;;4159482;28;20056;-68
2022/10/09 10:58:20;;;;;;;0.00;0.00;;;17.30;79.20;;;;;;4150092;28;20565;-70
2022/10/09 11:01:18;;;;;;;0.00;0.00;;;17.30;79.30;;;;;;4174219;28;20056;-69
2022/10/09 11:04:20;;;;;;;1.45;1.15;;;17.30;79.40;;;;;;4180238;28;20106;-70
2022/10/09 11:07:11;;;;;;;0.00;0.00;;;17.40;79.20;;;;;;4190220;28;20094;-70
2022/10/09 11:10:01;;;;;;;0.00;0.00;;;17.40;79.00;;;;;;4191662;28;20133;-74
2022/10/09 11:12:47;;;;;;;0.28;0.28;;;17.40;79.30;;;;;;4190668;28;20051;-73
2022/10/09 11:15:36;;;;;;;0.10;0.10;;;17.50;79.30;;;;;;4194333;28;20047;-75
2022/10/09 11:18:35;;;;;;;0.00;0.00;;;17.50;79.10;;;;;;4168099;28;20119;-74
2022/10/09 11:21:27;;;;;;;0.03;0.03;;;17.50;78.90;;;;;;4178049;28;20378;-73
2022/10/09 11:24:47;;;;;;;0.00;0.00;;;17.50;78.60;;;;;;4177358;28;20044;-73
2022/10/09 11:27:42;;;;;;;0.00;0.00;;;17.60;78.50;;;;;;4179947;28;20056;-73
2022/10/09 11:30:25;;;;;;;0.00;0.00;;;17.60;78.10;;;;;;4180815;28;20052;-72
2022/10/09 11:33:17;;;;;;;0.00;0.00;;;17.60;77.90;;;;;;4191922;28;20074;-71
2022/10/09 11:36:02;;;;;;;0.05;0.05;;;17.60;77.70;;;;;;4196424;28;20059;-75
2022/10/09 11:38:46;;;;;;;0.00;0.00;;;17.70;77.50;;;;;;4195899;28;20094;-74
2022/10/09 11:41:28;;;;;;;0.00;0.00;;;17.70;77.40;;;;;;4196804;28;20117;-74
2022/10/09 11:44:24;;;;;;;0.00;0.00;;;17.70;77.00;;;;;;4196064;28;20766;-74
2022/10/09 11:47:14;;;;;;;0.00;0.00;;;17.70;77.10;;;;;;4197207;28;20055;-67
2022/10/09 11:50:21;;;;;;;0.00;0.00;;;17.80;76.80;;;;;;4178235;28;20067;-70
2022/10/09 11:53:08;;;;;;;0.10;0.10;;;17.80;77.20;;;;;;4178150;28;20087;-70
2022/10/09 11:55:49;;;;;;;0.35;0.35;;;17.80;77.10;;;;;;4191159;28;20118;-71
2022/10/09 11:58:31;;;;;;;0.00;0.00;;;17.80;76.90;;;;;;4194540;28;20051;-70
2022/10/09 12:01:21;;;;;;;0.00;0.00;;;17.80;76.80;;;;;;4194516;28;20074;-68
2022/10/09 12:04:06;;;;;;;0.00;0.00;;;17.90;76.70;;;;;;4197764;28;20047;-68
2022/10/09 12:06:49;;;;;;;0.00;0.00;;;17.90;76.50;;;;;;4194193;28;20051;-68
2022/10/09 12:09:35;;;;;;;0.00;0.00;;;17.90;76.20;;;;;;4194329;28;20139;-68
2022/10/09 12:12:22;;;;;;;0.00;0.00;;;17.90;76.10;;;;;;4177225;28;20056;-68
2022/10/09 12:15:22;;;;;;;0.10;0.10;;;17.90;76.00;;;;;;4176527;28;20048;-70
2022/10/09 12:18:15;;;;;;;0.00;0.00;;;17.90;75.70;;;;;;4176470;28;20047;-71
2022/10/09 12:20:58;;;;;;;0.00;0.00;;;17.90;75.60;;;;;;4192496;28;20062;-71
2022/10/09 12:23:40;;;;;;;0.00;0.00;;;17.90;75.70;;;;;;4176397;28;20513;-70
2022/10/09 12:26:24;;;;;;;0.20;0.20;;;17.90;75.90;;;;;;4176302;28;20056;-69
2022/10/09 12:29:07;;;;;;;0.00;0.00;;;18.00;75.40;;;;;;4180807;28;20055;-69
2022/10/09 12:31:52;;;;;;;0.00;0.00;;;18.00;75.50;;;;;;4176320;28;20055;-69
2022/10/09 12:34:37;;;;;;;0.00;0.00;;;18.00;75.10;;;;;;4174654;28;20054;-69
2022/10/09 12:37:19;;;;;;;0.00;0.00;;;18.00;74.90;;;;;;4184982;28;20665;-69
2022/10/09 12:40:08;;;;;;;0.47;0.47;;;18.10;75.10;;;;;;4197828;28;20608;-69
2022/10/09 12:42:52;;;;;;;0.00;0.00;;;18.10;75.00;;;;;;4200118;28;20044;-69
2022/10/09 12:45:33;;;;;;;0.00;0.00;;;18.10;74.80;;;;;;4196694;28;20121;-72
2022/10/09 12:48:18;;;;;;;0.00;0.00;;;18.10;74.90;;;;;;4198978;28;20047;-71
2022/10/09 12:50:59;;;;;;;0.00;0.00;;;18.10;75.20;;;;;;4198675;28;20078;-72
2022/10/09 12:53:47;;;;;;;0.00;0.00;;;18.20;75.20;;;;;;4181574;28;20388;-68
2022/10/09 12:56:31;;;;;;;0.00;0.00;;;18.20;75.10;;;;;;4192470;28;20039;-68
2022/10/09 12:59:14;;;;;;;0.00;0.00;;;18.20;75.10;;;;;;4192522;28;20047;-69
2022/10/09 13:01:58;;;;;;;0.00;0.00;;;18.20;74.40;;;;;;4194067;28;20052;-69
2022/10/09 13:04:39;;;;;;;0.00;0.00;;;18.20;74.70;;;;;;4192785;28;20051;-68
2022/10/09 13:07:24;;;;;;;0.00;0.00;;;18.20;74.70;;;;;;4190451;28;20803;-69
2022/10/09 13:10:15;;;;;;;0.00;0.00;;;18.30;74.40;;;;;;4192631;28;20411;-69
2022/10/09 13:12:57;;;;;;;0.00;0.00;;;18.30;73.90;;;;;;4192410;28;20051;-69
2022/10/09 13:15:39;;;;;;;0.17;0.17;;;18.30;74.20;;;;;;4192312;28;20091;-68
2022/10/09 13:18:22;;;;;;;0.00;0.00;;;18.30;74.70;;;;;;4192489;28;20149;-69
2022/10/09 13:21:05;;;;;;;0.00;0.00;;;18.30;74.80;;;;;;4191365;28;20177;-69
2022/10/09 13:23:46;;;;;;;0.00;0.00;;;18.40;73.90;;;;;;4192759;28;20051;-69
2022/10/09 13:26:29;;;;;;;0.00;0.00;;;18.40;74.00;;;;;;4191877;28;20048;-69
2022/10/09 13:29:13;;;;;;;1.85;1.00;;;18.40;73.50;;;;;;4192369;28;20043;-68
2022/10/09 13:31:55;;;;;;;0.00;0.00;;;18.40;73.70;;;;;;4191915;28;20121;-70
2022/10/09 13:34:36;;;;;;;0.00;0.00;;;18.40;74.10;;;;;;4192058;28;20051;-71
2022/10/09 13:37:19;;;;;;;0.00;0.00;;;18.50;73.90;;;;;;4192484;28;20595;-71
2022/10/09 13:40:00;;;;;;;0.00;0.00;;;18.50;73.90;;;;;;4192635;28;20110;-72
2022/10/09 13:42:41;;;;;;;0.00;0.00;;;18.50;74.10;;;;;;4192226;28;20050;-71
2022/10/09 13:45:23;;;;;;;0.00;0.00;;;18.50;74.00;;;;;;4202466;28;20046;-72
2022/10/09 13:48:05;;;;;;;;;;;18.50;73.70;;;;;;4192625;28;20506;-69
2022/10/09 13:50:46;;;;;;;0.30;0.30;;;18.50;72.30;;;;;;4192583;28;19928;-68
2022/10/09 13:53:27;;;;;;;0.00;0.00;;;18.50;73.40;;;;;;4201211;28;20173;-68
2022/10/09 13:56:08;;;;;;;0.00;0.00;;;18.50;73.70;;;;;;4199985;28;20138;-68
2022/10/09 13:58:49;;;;;;;0.00;0.00;;;18.50;73.40;;;;;;4198119;28;20359;-69
2022/10/09 14:01:30;;;;;;;0.13;0.13;;;18.60;73.70;;;;;;4196043;28;20059;-69
2022/10/09 14:04:13;;;;;;;;;;;18.60;73.60;;;;;;4192292;28;20407;-69
2022/10/09 14:06:53;;;;;;;;;;;18.60;72.40;;;;;;4176041;28;20371;-69
2022/10/09 14:09:34;;;;;;;0.00;0.00;;;18.60;73.20;;;;;;4175633;28;19932;-69
2022/10/09 14:12:15;;;;;;;0.00;0.00;;;18.60;73.20;;;;;;4175105;28;20151;-68
2022/10/09 14:14:56;;;;;;;0.00;0.00;;;18.60;73.30;;;;;;4159669;28;20048;-69